Dades meteomassalio
Diari Summary for Gener 12, 2018 Units:  Both    English   Metric
« Previous Day
Next Day »
Diari Semanal Mensual Anual Personalitzat
  Maxima: Minima: Mijana:
Temperatura: TemperatureC °F /  -17.8 °C 1.7 °F /  -16.8 °C 7 °F /  -13.9 °C
Rosada: DewpointC °F /  -17.8 °C -0.4 °F /  -18 °C 3 °F /  -16.1 °C
Humitat: Humidity % 66 % 75 %
Velocitat del vent: WindSpeedKMH mph /  0 km/h - 17.2 mph /  27.7 km/h
Racha vent: WindSpeedGustKMH mph /  0 km/h - -
Vent:- - NW
Pressio: PressurehPa in /  0 hPa 1024.9 in /  34703.1 hPa -
Pluja: 0.0 in /  0 mm    
Historical Graphs
 
 
Tabular Data for Gener 12, 2018
Time Temperature Dew Point Pressure Wind Wind Speed Wind Gust Humidity Rainfall Rate (Hourly) solar Conditions
TemperatureC °F /  -17.8 °C DewpointC °F /  -17.8 °C PressurehPa in /  0 hPa Calm     Humidity % HourlyPrecipMM in /  0 mm SolarRadiationWatts/m^2 W/m2 Conditions
00:00 6.1 °F /  -14.4 °C 2.2 °F /  -16.6 °C 1024.9 in /  34703.1 hPa NW 24.1 mph /  38.8 km/h 24.1 mph /  38.8 km/h 76 % 0.0 in /  0 mm 0.0 W/m2 CLR
00:01 6.1 °F /  -14.4 °C 2.2 °F /  -16.6 °C 1025.3 in /  34716.7 hPa North 13.0 mph /  20.9 km/h 13.0 mph /  20.9 km/h 76 % 0.0 in /  0 mm 0.0 W/m2 CLR
00:09 6.1 °F /  -14.4 °C 2.2 °F /  -16.6 °C 1024.9 in /  34703.1 hPa NW 18.5 mph /  29.8 km/h 18.5 mph /  29.8 km/h 76 % 0.0 in /  0 mm 0.0 W/m2 CLR
00:22 6.1 °F /  -14.4 °C 2.2 °F /  -16.6 °C 1025.3 in /  34716.7 hPa NNW 22.2 mph /  35.7 km/h 22.2 mph /  35.7 km/h 76 % 0.0 in /  0 mm 0.0 W/m2 CLR
00:39 6.1 °F /  -14.4 °C 2.2 °F /  -16.6 °C 1025.3 in /  34716.7 hPa NW 9.7 mph /  15.6 km/h 9.7 mph /  15.6 km/h 76 % 0.0 in /  0 mm 0.0 W/m2 CLR
00:41 6.1 °F /  -14.4 °C 2.4 °F /  -16.4 °C 1025.3 in /  34716.7 hPa NW 18.5 mph /  29.8 km/h 18.5 mph /  29.8 km/h 77 % 0.0 in /  0 mm 0.0 W/m2 CLR
00:44 6.1 °F /  -14.4 °C 2.4 °F /  -16.4 °C 1025.3 in /  34716.7 hPa NNW 18.5 mph /  29.8 km/h 18.5 mph /  29.8 km/h 77 % 0.0 in /  0 mm 0.0 W/m2 CLR
00:49 6.1 °F /  -14.4 °C 2.4 °F /  -16.4 °C 1025.3 in /  34716.7 hPa NNW 18.5 mph /  29.8 km/h 18.5 mph /  29.8 km/h 77 % 0.0 in /  0 mm 0.0 W/m2 CLR
00:54 6.1 °F /  -14.4 °C 2.4 °F /  -16.4 °C 1025.6 in /  34726.8 hPa NNW 18.5 mph /  29.8 km/h 18.5 mph /  29.8 km/h 77 % 0.0 in /  0 mm 0.0 W/m2 CLR
01:00 6.1 °F /  -14.4 °C 2.4 °F /  -16.4 °C 1025.3 in /  34716.7 hPa NNW 20.4 mph /  32.8 km/h 20.4 mph /  32.8 km/h 77 % 0.0 in /  0 mm 0.0 W/m2 CLR
01:12 6.1 °F /  -14.4 °C 2.6 °F /  -16.3 °C 1025.3 in /  34716.7 hPa NW 14.8 mph /  23.8 km/h 14.8 mph /  23.8 km/h 78 % 0.0 in /  0 mm 0.0 W/m2 CLR
01:24 6.1 °F /  -14.4 °C 2.7 °F /  -16.3 °C 1025.3 in /  34716.7 hPa WNW 18.5 mph /  29.8 km/h 18.5 mph /  29.8 km/h 79 % 0.0 in /  0 mm 0.0 W/m2 CLR
01:32 6.1 °F /  -14.4 °C 2.7 °F /  -16.3 °C 1025.3 in /  34716.7 hPa NW 24.1 mph /  38.8 km/h 24.1 mph /  38.8 km/h 79 % 0.0 in /  0 mm 0.0 W/m2 CLR
01:41 5.6 °F /  -14.7 °C 2.2 °F /  -16.6 °C 1025.3 in /  34716.7 hPa NNW 20.4 mph /  32.8 km/h 20.4 mph /  32.8 km/h 79 % 0.0 in /  0 mm 0.0 W/m2 CLR
01:47 5.6 °F /  -14.7 °C 2.4 °F /  -16.4 °C 1025.3 in /  34716.7 hPa NNW 16.7 mph /  26.9 km/h 16.7 mph /  26.9 km/h 80 % 0.0 in /  0 mm 0.0 W/m2 CLR
01:58 5.0 °F /  -15 °C 2.0 °F /  -16.7 °C 1025.6 in /  34726.8 hPa NNW 16.7 mph /  26.9 km/h 16.7 mph /  26.9 km/h 81 % 0.0 in /  0 mm 0.0 W/m2 CLR
02:04 5.0 °F /  -15 °C 2.0 °F /  -16.7 °C 1025.6 in /  34726.8 hPa NW 18.5 mph /  29.8 km/h 18.5 mph /  29.8 km/h 81 % 0.0 in /  0 mm 0.0 W/m2 CLR
02:20 5.0 °F /  -15 °C 2.2 °F /  -16.6 °C 1025.3 in /  34716.7 hPa WNW 11.1 mph /  17.9 km/h 11.1 mph /  17.9 km/h 82 % 0.0 in /  0 mm 0.0 W/m2 CLR
02:38 5.0 °F /  -15 °C 2.2 °F /  -16.6 °C 1025.6 in /  34726.8 hPa WNW 18.5 mph /  29.8 km/h 18.5 mph /  29.8 km/h 82 % 0.0 in /  0 mm 0.0 W/m2 CLR
02:50 5.0 °F /  -15 °C 2.0 °F /  -16.7 °C 1025.6 in /  34726.8 hPa WNW 18.5 mph /  29.8 km/h 18.5 mph /  29.8 km/h 81 % 0.0 in /  0 mm 0.0 W/m2 CLR
02:55 5.0 °F /  -15 °C 2.0 °F /  -16.7 °C 1025.6 in /  34726.8 hPa NNW 20.4 mph /  32.8 km/h 20.4 mph /  32.8 km/h 81 % 0.0 in /  0 mm 0.0 W/m2 CLR
03:05 5.6 °F /  -14.7 °C 2.6 °F /  -16.3 °C 1025.6 in /  34726.8 hPa WNW 24.1 mph /  38.8 km/h 24.1 mph /  38.8 km/h 81 % 0.0 in /  0 mm 0.0 W/m2 CLR
03:18 5.0 °F /  -15 °C 2.0 °F /  -16.7 °C 1026.0 in /  34740.4 hPa NNW 22.2 mph /  35.7 km/h 22.2 mph /  35.7 km/h 81 % 0.0 in /  0 mm 0.0 W/m2 CLR
03:28 5.0 °F /  -15 °C 2.2 °F /  -16.6 °C 1026.0 in /  34740.4 hPa NW 22.2 mph /  35.7 km/h 22.2 mph /  35.7 km/h 82 % 0.0 in /  0 mm 0.0 W/m2 CLR
03:42 5.6 °F /  -14.7 °C 2.6 °F /  -16.3 °C 1026.0 in /  34740.4 hPa WNW 19.3 mph /  31.1 km/h 19.3 mph /  31.1 km/h 81 % 0.0 in /  0 mm 0.0 W/m2 CLR
03:48 5.6 °F /  -14.7 °C 2.6 °F /  -16.3 °C 1025.6 in /  34726.8 hPa WNW 18.5 mph /  29.8 km/h 18.7 mph /  30.1 km/h 81 % 0.0 in /  0 mm 0.0 W/m2 CLR
03:56 5.6 °F /  -14.7 °C 2.6 °F /  -16.3 °C 1025.6 in /  34726.8 hPa NW 20.4 mph /  32.8 km/h 20.4 mph /  32.8 km/h 81 % 0.0 in /  0 mm 0.0 W/m2 CLR
04:01 5.6 °F /  -14.7 °C 2.6 °F /  -16.3 °C 1025.6 in /  34726.8 hPa WNW 20.4 mph /  32.8 km/h 20.4 mph /  32.8 km/h 81 % 0.0 in /  0 mm 0.0 W/m2 CLR
04:11 5.6 °F /  -14.7 °C 2.4 °F /  -16.4 °C 1025.6 in /  34726.8 hPa NW 20.4 mph /  32.8 km/h 20.4 mph /  32.8 km/h 80 % 0.0 in /  0 mm 0.0 W/m2 CLR
04:18 6.1 °F /  -14.4 °C 2.9 °F /  -16.2 °C 1025.6 in /  34726.8 hPa NW 27.8 mph /  44.7 km/h 27.8 mph /  44.7 km/h 80 % 0.0 in /  0 mm 0.0 W/m2 CLR
04:49 6.7 °F /  -14.1 °C 3.1 °F /  -16.1 °C 1025.6 in /  34726.8 hPa NW 29.6 mph /  47.6 km/h 29.6 mph /  47.6 km/h 78 % 0.0 in /  0 mm 0.0 W/m2 CLR
05:06 6.7 °F /  -14.1 °C 3.3 °F /  -15.9 °C 1025.6 in /  34726.8 hPa NW 22.2 mph /  35.7 km/h 22.2 mph /  35.7 km/h 79 % 0.0 in /  0 mm 0.0 W/m2 CLR
05:15 6.7 °F /  -14.1 °C 3.3 °F /  -15.9 °C 1025.6 in /  34726.8 hPa NW 24.1 mph /  38.8 km/h 24.1 mph /  38.8 km/h 79 % 0.0 in /  0 mm 0.0 W/m2 CLR
05:45 6.7 °F /  -14.1 °C 3.3 °F /  -15.9 °C 1026.0 in /  34740.4 hPa NW 20.4 mph /  32.8 km/h 20.4 mph /  32.8 km/h 79 % 0.0 in /  0 mm 0.0 W/m2 CLR
05:52 6.7 °F /  -14.1 °C 3.3 °F /  -15.9 °C 1025.6 in /  34726.8 hPa NW 22.2 mph /  35.7 km/h 22.2 mph /  35.7 km/h 79 % 0.0 in /  0 mm 0.0 W/m2 CLR
06:05 6.7 °F /  -14.1 °C 3.3 °F /  -15.9 °C 1026.0 in /  34740.4 hPa WNW 24.1 mph /  38.8 km/h 24.1 mph /  38.8 km/h 79 % 0.0 in /  0 mm 0.0 W/m2 CLR
06:17 6.1 °F /  -14.4 °C 2.7 °F /  -16.3 °C 1026.0 in /  34740.4 hPa NW 22.2 mph /  35.7 km/h 22.2 mph /  35.7 km/h 79 % 0.0 in /  0 mm 0.0 W/m2 CLR
06:24 6.1 °F /  -14.4 °C 2.7 °F /  -16.3 °C 1026.0 in /  34740.4 hPa WNW 20.4 mph /  32.8 km/h 20.4 mph /  32.8 km/h 79 % 0.0 in /  0 mm 0.0 W/m2 CLR
06:31 6.1 °F /  -14.4 °C 2.9 °F /  -16.2 °C 1026.0 in /  34740.4 hPa WNW 25.9 mph /  41.7 km/h 25.9 mph /  41.7 km/h 80 % 0.0 in /  0 mm 0.0 W/m2 CLR
06:56 7.2 °F /  -13.8 °C 3.7 °F /  -15.7 °C 1026.0 in /  34740.4 hPa WNW 24.1 mph /  38.8 km/h 24.1 mph /  38.8 km/h 78 % 0.0 in /  0 mm 0.0 W/m2 CLR
07:04 6.7 °F /  -14.1 °C 3.1 °F /  -16.1 °C 1026.0 in /  34740.4 hPa NW 24.1 mph /  38.8 km/h 24.1 mph /  38.8 km/h 78 % 0.0 in /  0 mm 0.0 W/m2 CLR
07:27 7.2 °F /  -13.8 °C 3.4 °F /  -15.9 °C 1026.0 in /  34740.4 hPa NW 20.4 mph /  32.8 km/h 20.4 mph /  32.8 km/h 77 % 0.0 in /  0 mm 0.0 W/m2 CLR
07:45 6.7 °F /  -14.1 °C 2.9 °F /  -16.2 °C 1026.0 in /  34740.4 hPa NW 18.5 mph /  29.8 km/h 18.5 mph /  29.8 km/h 77 % 0.0 in /  0 mm 0.0 W/m2 CLR
07:51 6.7 °F /  -14.1 °C 3.1 °F /  -16.1 °C 1026.3 in /  34750.5 hPa WNW 24.1 mph /  38.8 km/h 24.1 mph /  38.8 km/h 78 % 0.0 in /  0 mm 0.0 W/m2 CLR
08:08 6.7 °F /  -14.1 °C 2.9 °F /  -16.2 °C 1026.3 in /  34750.5 hPa NW 19.3 mph /  31.1 km/h 22.5 mph /  36.2 km/h 77 % 0.0 in /  0 mm 0.0 W/m2 CLR
08:28 6.7 °F /  -14.1 °C 3.1 °F /  -16.1 °C 1026.3 in /  34750.5 hPa NW 18.5 mph /  29.8 km/h 18.5 mph /  29.8 km/h 78 % 0.0 in /  0 mm 5.0 W/m2 OVC
08:44 6.7 °F /  -14.1 °C 3.1 °F /  -16.1 °C 1026.3 in /  34750.5 hPa NW 20.4 mph /  32.8 km/h 20.4 mph /  32.8 km/h 78 % 0.0 in /  0 mm 11.0 W/m2 BKN
09:01 6.7 °F /  -14.1 °C 2.9 °F /  -16.2 °C 1026.3 in /  34750.5 hPa NW 20.4 mph /  32.8 km/h 20.4 mph /  32.8 km/h 77 % 0.0 in /  0 mm 25.0 W/m2 BKN
09:23 7.2 °F /  -13.8 °C 3.4 °F /  -15.9 °C 1026.6 in /  34760.7 hPa NW 24.1 mph /  38.8 km/h 24.1 mph /  38.8 km/h 77 % 0.0 in /  0 mm 47.0 W/m2 SCT
09:37 7.2 °F /  -13.8 °C 3.3 °F /  -15.9 °C 1026.6 in /  34760.7 hPa NW 35.2 mph /  56.6 km/h 35.2 mph /  56.6 km/h 76 % 0.0 in /  0 mm 47.0 W/m2 SCT
09:49 7.8 °F /  -13.4 °C 3.8 °F /  -15.7 °C 1026.6 in /  34760.7 hPa North 25.9 mph /  41.7 km/h 25.9 mph /  41.7 km/h 76 % 0.0 in /  0 mm 51.0 W/m2 SCT
09:56 7.8 °F /  -13.4 °C 3.8 °F /  -15.7 °C 1026.6 in /  34760.7 hPa NW 40.7 mph /  65.5 km/h 40.7 mph /  65.5 km/h 76 % 0.0 in /  0 mm 183.0 W/m2 FEW
10:01 7.8 °F /  -13.4 °C 3.8 °F /  -15.7 °C 1026.6 in /  34760.7 hPa NW 33.3 mph /  53.6 km/h 33.3 mph /  53.6 km/h 76 % 0.0 in /  0 mm 195.0 W/m2 CLR
10:13 8.3 °F /  -13.2 °C 4.2 °F /  -15.4 °C 1027.0 in /  34774.2 hPa NW 29.6 mph /  47.6 km/h 29.6 mph /  47.6 km/h 75 % 0.0 in /  0 mm 123.0 W/m2 CLR
10:19 8.3 °F /  -13.2 °C 3.9 °F /  -15.6 °C 1027.0 in /  34774.2 hPa NW 29.0 mph /  46.7 km/h 29.0 mph /  46.7 km/h 74 % 0.0 in /  0 mm 70.0 W/m2 CLR
10:35 8.9 °F /  -12.8 °C 4.3 °F /  -15.4 °C 1027.0 in /  34774.2 hPa NNW 38.9 mph /  62.6 km/h 38.9 mph /  62.6 km/h 73 % 0.0 in /  0 mm 70.0 W/m2 CLR
10:55 8.9 °F /  -12.8 °C 4.3 °F /  -15.4 °C 1027.0 in /  34774.2 hPa NW 31.5 mph /  50.7 km/h 31.5 mph /  50.7 km/h 73 % 0.0 in /  0 mm 139.0 W/m2 CLR
11:02 9.4 °F /  -12.6 °C 4.7 °F /  -15.2 °C 1027.0 in /  34774.2 hPa NNW 33.3 mph /  53.6 km/h 33.3 mph /  53.6 km/h 72 % 0.0 in /  0 mm 137.0 W/m2 CLR
11:08 9.4 °F /  -12.6 °C 4.7 °F /  -15.2 °C 1027.3 in /  34784.4 hPa North 31.5 mph /  50.7 km/h 31.5 mph /  50.7 km/h 72 % 0.0 in /  0 mm 141.0 W/m2 CLR
11:15 9.4 °F /  -12.6 °C 4.4 °F /  -15.3 °C 1027.0 in /  34774.2 hPa North 33.8 mph /  54.4 km/h 33.8 mph /  54.4 km/h 71 % 0.0 in /  0 mm 146.0 W/m2 CLR
11:43 10.0 °F /  -12.2 °C 4.8 °F /  -15.1 °C 1027.0 in /  34774.2 hPa NW 20.4 mph /  32.8 km/h 20.4 mph /  32.8 km/h 70 % 0.0 in /  0 mm 139.0 W/m2 CLR
12:14 9.4 °F /  -12.6 °C 4.2 °F /  -15.4 °C 1027.0 in /  34774.2 hPa NW 27.8 mph /  44.7 km/h 27.8 mph /  44.7 km/h 70 % 0.0 in /  0 mm 116.0 W/m2 CLR
12:27 10.0 °F /  -12.2 °C 4.8 °F /  -15.1 °C 1027.0 in /  34774.2 hPa NNW 24.1 mph /  38.8 km/h 24.1 mph /  38.8 km/h 70 % 0.0 in /  0 mm 158.0 W/m2 CLR
12:44 11.1 °F /  -11.6 °C 5.2 °F /  -14.9 °C 1026.6 in /  34760.7 hPa NW 24.1 mph /  38.8 km/h 24.1 mph /  38.8 km/h 67 % 0.0 in /  0 mm 274.0 W/m2 CLR
12:54 10.6 °F /  -11.9 °C 4.9 °F /  -15.1 °C 1026.3 in /  34750.5 hPa NW 29.6 mph /  47.6 km/h 29.6 mph /  47.6 km/h 68 % 0.0 in /  0 mm 197.0 W/m2 CLR
13:10 11.1 °F /  -11.6 °C 5.4 °F /  -14.8 °C 1026.3 in /  34750.5 hPa NNW 27.4 mph /  44.1 km/h 27.4 mph /  44.1 km/h 68 % 0.0 in /  0 mm 306.0 W/m2 CLR
13:23 11.1 °F /  -11.6 °C 5.2 °F /  -14.9 °C 1026.0 in /  34740.4 hPa NW 27.8 mph /  44.7 km/h 27.8 mph /  44.7 km/h 67 % 0.0 in /  0 mm 156.0 W/m2 CLR
13:42 10.6 °F /  -11.9 °C 4.7 °F /  -15.2 °C 1026.0 in /  34740.4 hPa North 33.3 mph /  53.6 km/h 33.3 mph /  53.6 km/h 67 % 0.0 in /  0 mm 146.0 W/m2 CLR
13:48 10.6 °F /  -11.9 °C 4.9 °F /  -15.1 °C 1026.0 in /  34740.4 hPa North 31.5 mph /  50.7 km/h 31.5 mph /  50.7 km/h 68 % 0.0 in /  0 mm 127.0 W/m2 CLR
14:02 10.6 °F /  -11.9 °C 5.1 °F /  -14.9 °C 1026.0 in /  34740.4 hPa NNW 18.5 mph /  29.8 km/h 18.5 mph /  29.8 km/h 69 % 0.0 in /  0 mm 179.0 W/m2 CLR
14:09 10.6 °F /  -11.9 °C 5.1 °F /  -14.9 °C 1026.0 in /  34740.4 hPa North 31.5 mph /  50.7 km/h 31.5 mph /  50.7 km/h 69 % 0.0 in /  0 mm 151.0 W/m2 CLR
14:14 10.6 °F /  -11.9 °C 5.1 °F /  -14.9 °C 1025.6 in /  34726.8 hPa North 27.8 mph /  44.7 km/h 27.8 mph /  44.7 km/h 69 % 0.0 in /  0 mm 174.0 W/m2 CLR
14:39 10.6 °F /  -11.9 °C 5.3 °F /  -14.8 °C 1025.6 in /  34726.8 hPa NW 9.7 mph /  15.6 km/h 9.7 mph /  15.6 km/h 70 % 0.0 in /  0 mm 83.0 W/m2 CLR
14:56 10.6 °F /  -11.9 °C 5.1 °F /  -14.9 °C 1025.3 in /  34716.7 hPa North 27.8 mph /  44.7 km/h 27.8 mph /  44.7 km/h 69 % 0.0 in /  0 mm 47.0 W/m2 FEW
15:02 10.0 °F /  -12.2 °C 4.8 °F /  -15.1 °C 1025.6 in /  34726.8 hPa North 27.8 mph /  44.7 km/h 27.8 mph /  44.7 km/h 70 % 0.0 in /  0 mm 49.0 W/m2 SCT
15:16 10.6 °F /  -11.9 °C 5.5 °F /  -14.7 °C 1025.6 in /  34726.8 hPa NE 16.7 mph /  26.9 km/h 16.7 mph /  26.9 km/h 71 % 0.0 in /  0 mm 109.0 W/m2 CLR
15:34 10.0 °F /  -12.2 °C 4.6 °F /  -15.2 °C 1025.3 in /  34716.7 hPa NNW 20.4 mph /  32.8 km/h 20.4 mph /  32.8 km/h 69 % 0.0 in /  0 mm 56.0 W/m2 SCT
16:03 10.6 °F /  -11.9 °C 4.7 °F /  -15.2 °C 1025.3 in /  34716.7 hPa NW 29.6 mph /  47.6 km/h 29.6 mph /  47.6 km/h 67 % 0.0 in /  0 mm 114.0 W/m2 CLR
16:12 10.6 °F /  -11.9 °C 4.4 °F /  -15.3 °C 1025.3 in /  34716.7 hPa NNW 20.4 mph /  32.8 km/h 20.4 mph /  32.8 km/h 66 % 0.0 in /  0 mm 86.0 W/m2 CLR
16:18 10.6 °F /  -11.9 °C 4.7 °F /  -15.2 °C 1025.3 in /  34716.7 hPa NW 25.9 mph /  41.7 km/h 25.9 mph /  41.7 km/h 67 % 0.0 in /  0 mm 47.0 W/m2 FEW
16:28 10.0 °F /  -12.2 °C 4.2 °F /  -15.4 °C 1025.3 in /  34716.7 hPa NNW 18.5 mph /  29.8 km/h 18.5 mph /  29.8 km/h 67 % 0.0 in /  0 mm 53.0 W/m2 FEW
16:41 10.0 °F /  -12.2 °C 4.2 °F /  -15.4 °C 1025.3 in /  34716.7 hPa North 18.5 mph /  29.8 km/h 18.5 mph /  29.8 km/h 67 % 0.0 in /  0 mm 39.0 W/m2 BKN
16:57 10.0 °F /  -12.2 °C 4.2 °F /  -15.4 °C 1025.3 in /  34716.7 hPa North 18.5 mph /  29.8 km/h 18.5 mph /  29.8 km/h 67 % 0.0 in /  0 mm 21.0 W/m2 BKN
17:09 10.0 °F /  -12.2 °C 4.3 °F /  -15.4 °C 1025.6 in /  34726.8 hPa NNW 18.5 mph /  29.8 km/h 18.5 mph /  29.8 km/h 68 % 0.0 in /  0 mm 26.0 W/m2 BKN
17:15 10.0 °F /  -12.2 °C 4.3 °F /  -15.4 °C 1025.6 in /  34726.8 hPa NNW 5.6 mph /  9 km/h   68 % 0.0 in /  0 mm 21.0 W/m2 BKN
17:28 10.0 °F /  -12.2 °C 4.6 °F /  -15.2 °C 1025.6 in /  34726.8 hPa Calm     69 % 0.0 in /  0 mm 12.0 W/m2 BKN
17:35 9.4 °F /  -12.6 °C 4.2 °F /  -15.4 °C 1025.6 in /  34726.8 hPa Calm     70 % 0.0 in /  0 mm 0.0 W/m2 OVC
18:00 8.9 °F /  -12.8 °C 3.7 °F /  -15.7 °C 1025.6 in /  34726.8 hPa Calm     70 % 0.0 in /  0 mm 0.0 W/m2 OVC
18:12 8.9 °F /  -12.8 °C 3.7 °F /  -15.7 °C 1025.6 in /  34726.8 hPa NNW 14.8 mph /  23.8 km/h 14.8 mph /  23.8 km/h 70 % 0.0 in /  0 mm 0.0 W/m2 CLR
18:45 8.9 °F /  -12.8 °C 3.7 °F /  -15.7 °C 1026.0 in /  34740.4 hPa Calm     70 % 0.0 in /  0 mm 0.0 W/m2 CLR
18:51 8.9 °F /  -12.8 °C 3.7 °F /  -15.7 °C 1026.0 in /  34740.4 hPa Calm     70 % 0.0 in /  0 mm 0.0 W/m2 CLR
18:56 8.9 °F /  -12.8 °C 3.7 °F /  -15.7 °C 1026.0 in /  34740.4 hPa Calm     70 % 0.0 in /  0 mm 0.0 W/m2 CLR
19:20 7.8 °F /  -13.4 °C 2.7 °F /  -16.3 °C 1026.3 in /  34750.5 hPa Calm     70 % 0.0 in /  0 mm 0.0 W/m2 CLR
19:28 7.2 °F /  -13.8 °C 2.3 °F /  -16.5 °C 1026.0 in /  34740.4 hPa Calm     71 % 0.0 in /  0 mm 0.0 W/m2 CLR
19:43 6.7 °F /  -14.1 °C 2.0 °F /  -16.7 °C 1026.3 in /  34750.5 hPa Calm     72 % 0.0 in /  0 mm 0.0 W/m2 CLR
19:48 6.7 °F /  -14.1 °C 2.0 °F /  -16.7 °C 1026.3 in /  34750.5 hPa Calm     72 % 0.0 in /  0 mm 0.0 W/m2 CLR
20:17 5.6 °F /  -14.7 °C 1.1 °F /  -17.2 °C 1026.3 in /  34750.5 hPa Calm     73 % 0.0 in /  0 mm 0.0 W/m2 CLR
20:29 5.0 °F /  -15 °C 0.9 °F /  -17.3 °C 1026.6 in /  34760.7 hPa Calm     75 % 0.0 in /  0 mm 0.0 W/m2 CLR
20:42 5.0 °F /  -15 °C 1.3 °F /  -17.1 °C 1026.6 in /  34760.7 hPa Calm     77 % 0.0 in /  0 mm 0.0 W/m2 CLR
20:52 4.4 °F /  -15.3 °C 0.9 °F /  -17.3 °C 1026.6 in /  34760.7 hPa Calm     78 % 0.0 in /  0 mm 0.0 W/m2 CLR
21:00 4.4 °F /  -15.3 °C 1.1 °F /  -17.2 °C 1026.6 in /  34760.7 hPa Calm     79 % 0.0 in /  0 mm 0.0 W/m2 CLR
21:06 4.4 °F /  -15.3 °C 1.1 °F /  -17.2 °C 1026.6 in /  34760.7 hPa Calm     79 % 0.0 in /  0 mm 0.0 W/m2 CLR
21:12 3.9 °F /  -15.6 °C 0.6 °F /  -17.4 °C 1026.6 in /  34760.7 hPa Calm     79 % 0.0 in /  0 mm 0.0 W/m2 CLR
21:31 4.4 °F /  -15.3 °C 1.6 °F /  -16.9 °C 1026.6 in /  34760.7 hPa Calm     82 % 0.0 in /  0 mm 0.0 W/m2 CLR
21:39 4.4 °F /  -15.3 °C 1.4 °F /  -17 °C 1026.6 in /  34760.7 hPa Calm     81 % 0.0 in /  0 mm 0.0 W/m2 CLR
21:44 4.4 °F /  -15.3 °C 1.4 °F /  -17 °C 1026.6 in /  34760.7 hPa Calm     81 % 0.0 in /  0 mm 0.0 W/m2 CLR
21:53 3.9 °F /  -15.6 °C 1.4 °F /  -17 °C 1026.6 in /  34760.7 hPa Calm     84 % 0.0 in /  0 mm 0.0 W/m2 CLR
21:59 3.9 °F /  -15.6 °C 1.3 °F /  -17.1 °C 1026.6 in /  34760.7 hPa Calm     83 % 0.0 in /  0 mm 0.0 W/m2 CLR
22:21 3.3 °F /  -15.9 °C 1.1 °F /  -17.2 °C 1026.3 in /  34750.5 hPa WNW 9.7 mph /  15.6 km/h 9.7 mph /  15.6 km/h 85 % 0.0 in /  0 mm 0.0 W/m2 CLR
22:29 2.8 °F /  -16.2 °C -0.3 °F /  -17.9 °C 1026.3 in /  34750.5 hPa WNW 11.1 mph /  17.9 km/h   80 % 0.0 in /  0 mm 0.0 W/m2 CLR
22:38 2.8 °F /  -16.2 °C -0.3 °F /  -17.9 °C 1026.3 in /  34750.5 hPa WNW 11.1 mph /  17.9 km/h   80 % 0.0 in /  0 mm 0.0 W/m2 CLR
22:51 2.8 °F /  -16.2 °C 0.2 °F /  -17.7 °C 1026.3 in /  34750.5 hPa Calm     83 % 0.0 in /  0 mm 0.0 W/m2 CLR
23:07 2.8 °F /  -16.2 °C 0.5 °F /  -17.5 °C 1026.6 in /  34760.7 hPa Calm     85 % 0.0 in /  0 mm 0.0 W/m2 CLR
23:26 2.2 °F /  -16.6 °C 0.1 °F /  -17.7 °C 1026.6 in /  34760.7 hPa Calm     86 % 0.0 in /  0 mm 0.0 W/m2 CLR
23:44 1.7 °F /  -16.8 °C -0.4 °F /  -18 °C 1026.3 in /  34750.5 hPa Calm     86 % 0.0 in /  0 mm 0.0 W/m2 CLR
Lo Temps de Massalio
Compliments of Weather Underground - 768 kb